Leni P. — A8XW5 — position and weather

sailwx.info

Track history (hours):
 
Tides and Currents Weather Stations Pressure Air Temp Water Temp Dewpoint Dewpoint Depression Visibility Wind Speed Wind Dir Waves Ship Positions

Leni P.

Last reported at 2014-Aug-01 03:31 UTC. Time now 2014-Aug-01 03:51 UTC.
Position N 52°00' E 003°09'.

Length 274 m; draft 14.5 m.

Type: Ship (hazmat cat A). MMSI: 636014986.

Date/timePositionNaut miles runAvg speedWind from/ knotsBaromVisibWave heightAir tempDewpointWater temp
2014-Aug-01 03:31N 52°00' E 003°09'0 0.1
2014-Aug-01 02:28N 52°00' E 003°09'0 0.2
2014-Aug-01 01:16N 52°00' E 003°09'0 0.0
2014-Aug-01 00:22N 52°00' E 003°09'0 0.0
2014-Jul-31 23:31N 52°00' E 003°09'0 0.1
2014-Jul-31 22:31N 52°00' E 003°09'0 0.2
2014-Jul-31 21:31N 52°00' E 003°09'0 0.1
2014-Jul-31 20:31N 52°00' E 003°09'0 0.0
2014-Jul-31 19:31N 52°00' E 003°09'0 0.0
2014-Jul-31 18:31N 52°00' E 003°09'0 0.0
2014-Jul-31 17:34N 52°00' E 003°09'0 0.4
2014-Jul-31 16:33N 52°00' E 003°09'9 9.4
2014-Jul-31 15:33N 51°58' E 002°54'10 9.7
2014-Jul-31 14:33N 52°03' E 002°40'1010.4
2014-Jul-31 13:34N 52°13' E 002°37'1311.5
2014-Jul-31 12:27N 52°26' E 002°32'3 2.4
2014-Jul-31 11:08N 52°29' E 002°33'1 1.7
2014-Jul-31 10:29N 52°30' E 002°33'2 1.4
2014-Jul-31 09:21N 52°31' E 002°32'1 0.8
2014-Jul-31 08:31N 52°32' E 002°31'1 0.5
2014-Jul-31 07:23N 52°32' E 002°31'2 1.3
2014-Jul-31 06:09N 52°30' E 002°30'1 1.8
2014-Jul-31 05:29N 52°29' E 002°29'2 1.9
2014-Jul-31 04:34N 52°27' E 002°28'7 7.1
2014-Jul-31 03:33N 52°23' E 002°37'9 8.5
2014-Jul-31 02:33N 52°14' E 002°38'1110.8
2014-Jul-31 01:34N 52°25' E 002°37'1611.7
2014-Jul-31 00:14N 52°41' E 002°37'812.1
2014-Jul-30 23:32N 52°49' E 002°38'1312.2
2014-Jul-30 22:28N 53°02' E 002°37'246 5.2
2014-Jul-28 23:27N 56°20' W 001°34'0 0.1
2014-Jul-28 22:26N 56°21' W 001°34'0 0.1
2014-Jul-28 21:23N 56°21' W 001°34'0 0.0
2014-Jul-28 20:32N 56°21' W 001°34'0 0.0
2014-Jul-28 19:32N 56°21' W 001°34'0 0.0
2014-Jul-28 18:17N 56°20' W 001°34'0 0.2
2014-Jul-28 17:32N 56°20' W 001°34'0 0.1
2014-Jul-28 16:27N 56°20' W 001°34'0 0.1
2014-Jul-28 10:26N 56°21' W 001°34'0 0.0
2014-Jul-26 18:24N 56°21' W 001°34'0 0.1
2014-Jul-26 17:32N 56°21' W 001°34'0 0.2
2014-Jul-26 16:23N 56°20' W 001°34'0 0.1
2014-Jul-26 15:33N 56°20' W 001°34'0 0.0
2014-Jul-26 14:32N 56°20' W 001°34'0 0.0
2014-Jul-26 13:32N 56°20' W 001°34'0 0.0
2014-Jul-26 12:29N 56°20' W 001°34'0 0.2
2014-Jul-26 11:14N 56°20' W 001°34'0 0.0
2014-Jul-26 10:29N 56°21' W 001°34'0 0.0
2014-Jul-26 09:32N 56°21' W 001°34'0 0.0
2014-Jul-26 08:26N 56°21' W 001°34'0 0.0
2014-Jul-26 07:33N 56°21' W 001°34'0 0.0
2014-Jul-26 06:32N 56°21' W 001°34'0 0.0
2014-Jul-26 05:24N 56°21' W 001°34'0 0.1
2014-Jul-26 03:14N 56°20' W 001°34'0 0.0
2014-Jul-26 01:32N 56°20' W 001°34'0 0.0
2014-Jul-25 23:20N 56°20' W 001°34'0 0.1
2014-Jul-25 22:20N 56°20' W 001°35'0 0.2
2014-Jul-25 21:29N 56°20' W 001°34'0 0.1
2014-Jul-25 20:23N 56°21' W 001°34'0 0.0
2014-Jul-25 19:17N 56°21' W 001°34'0 0.0
2014-Jul-25 18:32N 56°21' W 001°34'0 0.0
2014-Jul-25 17:26N 56°21' W 001°34'0 0.2
2014-Jul-25 16:32N 56°20' W 001°35'0 0.1
2014-Jul-25 15:30N 56°20' W 001°34'0 0.0
2014-Jul-25 14:30N 56°20' W 001°34'0 0.0
2014-Jul-25 10:17N 56°20' W 001°34'0 0.2
2014-Jul-25 09:33N 56°20' W 001°35'0 0.1
2014-Jul-25 08:24N 56°21' W 001°34'0 0.0
2014-Jul-25 07:26N 56°21' W 001°34'0 0.0
2014-Jul-25 06:32N 56°21' W 001°34'0 0.0
2014-Jul-25 05:29N 56°21' W 001°34'0 0.1
2014-Jul-25 03:32N 56°20' W 001°34'0 0.1
2014-Jul-25 02:20N 56°20' W 001°34'0 0.0
2014-Jul-24 22:32N 56°20' W 001°34'0 0.1
2014-Jul-24 21:11N 56°20' W 001°35'0 0.1
2014-Jul-24 20:17N 56°20' W 001°35'0 0.1
2014-Jul-24 19:26N 56°21' W 001°34'0 0.0
2014-Jul-24 18:08N 56°21' W 001°34'0 0.0
2014-Jul-24 17:26N 56°21' W 001°34'0 0.0
2014-Jul-24 08:26N 56°20' W 001°34'0 0.1
2014-Jul-24 07:18N 56°21' W 001°34'0 0.0
2014-Jul-24 06:33N 56°21' W 001°34'0 0.0
2014-Jul-24 05:33N 56°21' W 001°34'0 0.1
2014-Jul-24 04:33N 56°21' W 001°34'0 0.2
2014-Jul-24 03:06N 56°20' W 001°34'0 0.1
2014-Jul-24 02:33N 56°20' W 001°34'0 0.0
2014-Jul-24 00:24N 56°20' W 001°34'0 0.0
2014-Jul-23 22:09N 56°20' W 001°34'0 0.1
2014-Jul-23 21:32N 56°20' W 001°34'0 0.2
2014-Jul-23 20:29N 56°20' W 001°34'0 0.0
2014-Jul-23 19:30N 56°20' W 001°34'0 0.0
2014-Jul-23 18:33N 56°21' W 001°34'0 0.0
2014-Jul-23 17:29N 56°21' W 001°34'0 0.0
2014-Jul-23 16:33N 56°21' W 001°34'0 0.0
2014-Jul-23 09:18N 56°20' W 001°34'0 0.1
2014-Jul-23 07:15N 56°20' W 001°34'0 0.0
2014-Jul-23 06:23N 56°21' W 001°34'0 0.0
2014-Jul-23 04:32N 56°21' W 001°34'0 0.1
2014-Jul-23 03:33N 56°21' W 001°34'0 0.1
2014-Jul-23 00:06N 56°20' W 001°34'0 0.0
2014-Jul-22 23:06N 56°20' W 001°34'0 0.1
2014-Jul-22 20:14N 56°20' W 001°35'0 0.2
2014-Jul-22 19:33N 56°20' W 001°34'0 0.0
2014-Jul-22 18:24N 56°20' W 001°34'0 0.0
2014-Jul-22 17:33N 56°21' W 001°34'0 0.0
2014-Jul-22 16:33N 56°21' W 001°34'0 0.0
2014-Jul-22 15:26N 56°21' W 001°34'0 0.2
2014-Jul-22 14:30N 56°20' W 001°34'0 0.0
2014-Jul-22 05:30N 56°20' W 001°34'0 0.0
2014-Jul-22 04:32N 56°21' W 001°34'  
Track history (hours):
 
Tides and Currents Weather Stations Pressure Air Temp Water Temp Dewpoint Dewpoint Depression Visibility Wind Speed Wind Dir Waves Ship Positions

Leni P.

Last reported at 2014-Aug-01 03:31 UTC. Time now 2014-Aug-01 03:51 UTC.
Position N 52°00' E 003°09'.

Length 274 m; draft 14.5 m.

Type: Ship (hazmat cat A). MMSI: 636014986.

Date/timePositionNaut miles runAvg speedWind from/ knotsBaromVisibWave heightAir tempDewpointWater temp
2014-Aug-01 03:31N 52°00' E 003°09'0 0.1
2014-Aug-01 02:28N 52°00' E 003°09'0 0.2
2014-Aug-01 01:16N 52°00' E 003°09'0 0.0
2014-Aug-01 00:22N 52°00' E 003°09'0 0.0
2014-Jul-31 23:31N 52°00' E 003°09'0 0.1
2014-Jul-31 22:31N 52°00' E 003°09'0 0.2
2014-Jul-31 21:31N 52°00' E 003°09'0 0.1
2014-Jul-31 20:31N 52°00' E 003°09'0 0.0
2014-Jul-31 19:31N 52°00' E 003°09'0 0.0
2014-Jul-31 18:31N 52°00' E 003°09'0 0.0
2014-Jul-31 17:34N 52°00' E 003°09'0 0.4
2014-Jul-31 16:33N 52°00' E 003°09'9 9.4
2014-Jul-31 15:33N 51°58' E 002°54'10 9.7
2014-Jul-31 14:33N 52°03' E 002°40'1010.4
2014-Jul-31 13:34N 52°13' E 002°37'1311.5
2014-Jul-31 12:27N 52°26' E 002°32'3 2.4
2014-Jul-31 11:08N 52°29' E 002°33'1 1.7
2014-Jul-31 10:29N 52°30' E 002°33'2 1.4
2014-Jul-31 09:21N 52°31' E 002°32'1 0.8
2014-Jul-31 08:31N 52°32' E 002°31'1 0.5
2014-Jul-31 07:23N 52°32' E 002°31'2 1.3
2014-Jul-31 06:09N 52°30' E 002°30'1 1.8
2014-Jul-31 05:29N 52°29' E 002°29'2 1.9
2014-Jul-31 04:34N 52°27' E 002°28'7 7.1
2014-Jul-31 03:33N 52°23' E 002°37'9 8.5
2014-Jul-31 02:33N 52°14' E 002°38'1110.8
2014-Jul-31 01:34N 52°25' E 002°37'1611.7
2014-Jul-31 00:14N 52°41' E 002°37'812.1
2014-Jul-30 23:32N 52°49' E 002°38'1312.2
2014-Jul-30 22:28N 53°02' E 002°37'246 5.2
2014-Jul-28 23:27N 56°20' W 001°34'0 0.1
2014-Jul-28 22:26N 56°21' W 001°34'0 0.1
2014-Jul-28 21:23N 56°21' W 001°34'0 0.0
2014-Jul-28 20:32N 56°21' W 001°34'0 0.0
2014-Jul-28 19:32N 56°21' W 001°34'0 0.0
2014-Jul-28 18:17N 56°20' W 001°34'0 0.2
2014-Jul-28 17:32N 56°20' W 001°34'0 0.1
2014-Jul-28 16:27N 56°20' W 001°34'0 0.1
2014-Jul-28 10:26N 56°21' W 001°34'0 0.0
2014-Jul-26 18:24N 56°21' W 001°34'0 0.1
2014-Jul-26 17:32N 56°21' W 001°34'0 0.2
2014-Jul-26 16:23N 56°20' W 001°34'0 0.1
2014-Jul-26 15:33N 56°20' W 001°34'0 0.0
2014-Jul-26 14:32N 56°20' W 001°34'0 0.0
2014-Jul-26 13:32N 56°20' W 001°34'0 0.0
2014-Jul-26 12:29N 56°20' W 001°34'0 0.2
2014-Jul-26 11:14N 56°20' W 001°34'0 0.0
2014-Jul-26 10:29N 56°21' W 001°34'0 0.0
2014-Jul-26 09:32N 56°21' W 001°34'0 0.0
2014-Jul-26 08:26N 56°21' W 001°34'0 0.0
2014-Jul-26 07:33N 56°21' W 001°34'0 0.0
2014-Jul-26 06:32N 56°21' W 001°34'0 0.0
2014-Jul-26 05:24N 56°21' W 001°34'0 0.1
2014-Jul-26 03:14N 56°20' W 001°34'0 0.0
2014-Jul-26 01:32N 56°20' W 001°34'0 0.0
2014-Jul-25 23:20N 56°20' W 001°34'0 0.1
2014-Jul-25 22:20N 56°20' W 001°35'0 0.2
2014-Jul-25 21:29N 56°20' W 001°34'0 0.1
2014-Jul-25 20:23N 56°21' W 001°34'0 0.0
2014-Jul-25 19:17N 56°21' W 001°34'0 0.0
2014-Jul-25 18:32N 56°21' W 001°34'0 0.0
2014-Jul-25 17:26N 56°21' W 001°34'0 0.2
2014-Jul-25 16:32N 56°20' W 001°35'0 0.1
2014-Jul-25 15:30N 56°20' W 001°34'0 0.0
2014-Jul-25 14:30N 56°20' W 001°34'0 0.0
2014-Jul-25 10:17N 56°20' W 001°34'0 0.2
2014-Jul-25 09:33N 56°20' W 001°35'0 0.1
2014-Jul-25 08:24N 56°21' W 001°34'0 0.0
2014-Jul-25 07:26N 56°21' W 001°34'0 0.0
2014-Jul-25 06:32N 56°21' W 001°34'0 0.0
2014-Jul-25 05:29N 56°21' W 001°34'0 0.1
2014-Jul-25 03:32N 56°20' W 001°34'0 0.1
2014-Jul-25 02:20N 56°20' W 001°34'0 0.0
2014-Jul-24 22:32N 56°20' W 001°34'0 0.1
2014-Jul-24 21:11N 56°20' W 001°35'0 0.1
2014-Jul-24 20:17N 56°20' W 001°35'0 0.1
2014-Jul-24 19:26N 56°21' W 001°34'0 0.0
2014-Jul-24 18:08N 56°21' W 001°34'0 0.0
2014-Jul-24 17:26N 56°21' W 001°34'0 0.0
2014-Jul-24 08:26N 56°20' W 001°34'0 0.1
2014-Jul-24 07:18N 56°21' W 001°34'0 0.0
2014-Jul-24 06:33N 56°21' W 001°34'0 0.0
2014-Jul-24 05:33N 56°21' W 001°34'0 0.1
2014-Jul-24 04:33N 56°21' W 001°34'0 0.2
2014-Jul-24 03:06N 56°20' W 001°34'0 0.1
2014-Jul-24 02:33N 56°20' W 001°34'0 0.0
2014-Jul-24 00:24N 56°20' W 001°34'0 0.0
2014-Jul-23 22:09N 56°20' W 001°34'0 0.1
2014-Jul-23 21:32N 56°20' W 001°34'0 0.2
2014-Jul-23 20:29N 56°20' W 001°34'0 0.0
2014-Jul-23 19:30N 56°20' W 001°34'0 0.0
2014-Jul-23 18:33N 56°21' W 001°34'0 0.0
2014-Jul-23 17:29N 56°21' W 001°34'0 0.0
2014-Jul-23 16:33N 56°21' W 001°34'0 0.0
2014-Jul-23 09:18N 56°20' W 001°34'0 0.1
2014-Jul-23 07:15N 56°20' W 001°34'0 0.0
2014-Jul-23 06:23N 56°21' W 001°34'0 0.0
2014-Jul-23 04:32N 56°21' W 001°34'0 0.1
2014-Jul-23 03:33N 56°21' W 001°34'0 0.1
2014-Jul-23 00:06N 56°20' W 001°34'0 0.0
2014-Jul-22 23:06N 56°20' W 001°34'0 0.1
2014-Jul-22 20:14N 56°20' W 001°35'0 0.2
2014-Jul-22 19:33N 56°20' W 001°34'0 0.0
2014-Jul-22 18:24N 56°20' W 001°34'0 0.0
2014-Jul-22 17:33N 56°21' W 001°34'0 0.0
2014-Jul-22 16:33N 56°21' W 001°34'0 0.0
2014-Jul-22 15:26N 56°21' W 001°34'0 0.2
2014-Jul-22 14:30N 56°20' W 001°34'0 0.0
2014-Jul-22 05:30N 56°20' W 001°34'0 0.0
2014-Jul-22 04:32N 56°21' W 001°34'  

Dump ship's entire track history